createdAt,value
2022-10-24T00:00:10.036Z,72.18
2022-10-24T00:01:14.530Z,70.15
2022-10-24T00:02:17.215Z,64.55
2022-10-24T00:03:20.969Z,62.30
2022-10-24T00:04:23.727Z,82.55
2022-10-24T00:05:27.840Z,54.92
2022-10-24T00:06:31.929Z,62.45
2022-10-24T00:07:35.637Z,72.13
2022-10-24T00:08:39.367Z,68.20
2022-10-24T00:09:43.138Z,68.88
2022-10-24T00:10:47.790Z,96.25
2022-10-24T00:11:51.571Z,77.22
2022-10-24T00:12:55.091Z,62.75
2022-10-24T00:13:59.800Z,72.35
2022-10-24T00:15:02.593Z,79.00
2022-10-24T00:16:06.924Z,82.82
2022-10-24T00:17:09.733Z,74.65
2022-10-24T00:18:13.618Z,82.20
2022-10-24T00:19:16.379Z,73.63
2022-10-24T00:20:20.232Z,88.43
2022-10-24T00:21:23.117Z,91.53
2022-10-24T00:22:28.489Z,69.40
2022-10-24T00:23:31.294Z,68.13
2022-10-24T00:24:35.028Z,61.08
2022-10-24T00:25:37.810Z,68.35
2022-10-24T00:26:41.637Z,65.95
2022-10-24T00:27:44.450Z,71.22
2022-10-24T00:28:48.201Z,63.38
2022-10-24T00:29:50.989Z,63.70
2022-10-24T00:30:54.929Z,65.50
2022-10-24T00:31:57.626Z,59.92
2022-10-24T00:33:01.345Z,66.90
2022-10-24T00:34:04.546Z,59.08
2022-10-24T00:35:09.052Z,70.50
2022-10-24T00:36:12.909Z,70.30
2022-10-24T00:37:16.692Z,66.65
2022-10-24T00:38:20.836Z,75.03
2022-10-24T00:39:24.527Z,77.13
2022-10-24T00:40:27.228Z,80.03
2022-10-24T00:41:33.697Z,59.80
2022-10-24T00:42:36.997Z,60.88
2022-10-24T00:43:40.777Z,75.07
2022-10-24T00:44:43.767Z,63.33
2022-10-24T00:45:50.859Z,70.50
2022-10-24T00:46:55.808Z,73.43
2022-10-24T00:47:59.599Z,67.30
2022-10-24T00:49:02.360Z,70.97
2022-10-24T00:50:13.680Z,67.93
2022-10-24T00:51:21.876Z,65.95
2022-10-24T00:52:28.647Z,62.38
2022-10-24T00:53:33.746Z,60.83
2022-10-24T00:54:39.204Z,66.32
2022-10-24T00:55:43.278Z,50.50
2022-10-24T00:56:51.258Z,60.08
2022-10-24T00:57:55.407Z,67.35
2022-10-24T00:59:00.209Z,75.10
2022-10-24T01:00:09.187Z,65.38
2022-10-24T01:01:13.811Z,65.57
2022-10-24T01:02:16.615Z,67.30
2022-10-24T01:03:20.507Z,62.28
2022-10-24T01:04:23.248Z,57.83
2022-10-24T01:05:31.448Z,61.72
2022-10-24T01:06:45.927Z,58.17
2022-10-24T01:07:56.857Z,62.08
2022-10-24T01:09:10.016Z,58.40
2022-10-24T01:10:24.184Z,64.70
2022-10-24T01:11:40.714Z,64.07
2022-10-24T01:12:50.997Z,59.50
2022-10-24T01:13:59.168Z,54.67
2022-10-24T01:15:09.924Z,66.10
2022-10-24T01:16:15.717Z,54.53
2022-10-24T01:17:25.699Z,61.60
2022-10-24T01:18:31.558Z,54.30
2022-10-24T01:20:09.367Z,71.97
2022-10-24T01:21:25.066Z,58.13
2022-10-24T01:22:33.521Z,60.78
2022-10-24T01:23:58.569Z,56.58
2022-10-24T01:25:14.880Z,61.60
2022-10-24T01:26:33.969Z,51.30
2022-10-24T01:27:58.066Z,56.28
2022-10-24T01:29:08.013Z,52.83
2022-10-24T01:30:14.753Z,58.95
2022-10-24T01:31:21.269Z,59.53
2022-10-24T01:32:36.199Z,52.88
2022-10-24T01:33:41.209Z,56.42
2022-10-24T01:34:47.221Z,56.40
2022-10-24T01:36:10.120Z,72.35
2022-10-24T01:37:17.751Z,56.28
2022-10-24T01:38:25.702Z,55.22
2022-10-24T01:39:31.804Z,50.08
2022-10-24T01:40:38.269Z,52.17
2022-10-24T01:41:42.393Z,51.85
2022-10-24T01:42:46.701Z,58.80
2022-10-24T01:45:02.261Z,47.28
2022-10-24T01:46:20.338Z,45.05
2022-10-24T01:47:25.329Z,51.55
2022-10-24T01:48:30.740Z,71.05
2022-10-24T01:49:36.060Z,63.92
2022-10-24T01:50:40.800Z,63.47
2022-10-24T01:51:43.701Z,67.10
2022-10-24T01:52:48.480Z,59.83
2022-10-24T01:53:53.037Z,69.80
2022-10-24T01:54:55.730Z,52.50
2022-10-24T01:55:59.961Z,57.13
2022-10-24T01:57:02.963Z,53.67
2022-10-24T01:58:08.003Z,50.55
2022-10-24T01:59:40.271Z,45.58
2022-10-24T02:00:44.942Z,42.42
2022-10-24T02:01:49.224Z,48.30
2022-10-24T02:02:55.540Z,59.05
2022-10-24T02:03:58.912Z,47.55
2022-10-24T02:05:05.851Z,45.20
2022-10-24T02:06:11.832Z,56.08
2022-10-24T02:07:14.801Z,62.22
2022-10-24T02:08:21.200Z,58.80
2022-10-24T02:09:24.860Z,54.70
2022-10-24T02:10:31.138Z,54.45
2022-10-24T02:11:34.963Z,66.97
2022-10-24T02:12:40.100Z,60.95
2022-10-24T02:13:46.587Z,126.05
2022-10-24T02:14:52.101Z,143.45
2022-10-24T02:15:57.439Z,93.13
2022-10-24T02:17:04.329Z,58.58
2022-10-24T02:18:07.318Z,69.72
2022-10-24T02:19:11.251Z,52.70
2022-10-24T02:20:14.401Z,63.40
2022-10-24T02:21:23.457Z,68.13
2022-10-24T02:22:29.550Z,47.22
2022-10-24T02:23:38.369Z,55.40
2022-10-24T02:24:43.370Z,54.15
2022-10-24T02:25:49.492Z,55.55
2022-10-24T02:26:55.022Z,57.45
2022-10-24T02:28:02.511Z,53.05
2022-10-24T02:29:07.983Z,50.17
2022-10-24T02:30:15.018Z,75.32
2022-10-24T02:31:42.380Z,70.32
2022-10-24T02:32:48.052Z,75.97
2022-10-24T02:33:53.340Z,70.32
2022-10-24T02:34:56.138Z,73.80
2022-10-24T02:36:00.362Z,58.60
2022-10-24T02:37:03.782Z,75.18
2022-10-24T02:38:11.953Z,67.15
2022-10-24T02:39:15.122Z,73.88
2022-10-24T02:40:20.960Z,89.88
2022-10-24T02:41:26.680Z,74.40
2022-10-24T02:42:31.727Z,70.10
2022-10-24T02:43:34.832Z,59.53
2022-10-24T02:44:38.803Z,54.63
2022-10-24T02:45:41.557Z,52.08
2022-10-24T02:46:47.360Z,58.42
2022-10-24T02:47:53.548Z,68.45
2022-10-24T02:48:59.980Z,51.63
2022-10-24T02:50:02.694Z,58.20
2022-10-24T02:51:07.289Z,70.57
2022-10-24T02:52:10.050Z,71.82
2022-10-24T02:53:15.491Z,65.40
2022-10-24T02:54:18.337Z,64.43
2022-10-24T02:55:22.155Z,65.20
2022-10-24T02:56:24.988Z,74.25
2022-10-24T02:57:28.809Z,51.47
2022-10-24T02:58:31.572Z,49.10
2022-10-24T02:59:35.438Z,45.92
2022-10-24T03:00:38.356Z,52.17
2022-10-24T03:01:42.136Z,45.85
2022-10-24T03:02:45.279Z,46.63
2022-10-24T03:03:50.867Z,46.65
2022-10-24T03:04:53.654Z,41.58
2022-10-24T03:05:57.331Z,43.35
2022-10-24T03:07:00.083Z,43.15
2022-10-24T03:08:03.856Z,43.05
2022-10-24T03:09:06.621Z,58.13
2022-10-24T03:10:10.878Z,52.17
2022-10-24T03:11:13.570Z,44.67
2022-10-24T03:12:17.940Z,49.65
2022-10-24T03:13:20.650Z,46.00
2022-10-24T03:14:24.509Z,52.47
2022-10-24T03:15:27.250Z,49.33
2022-10-24T03:16:30.949Z,42.15
2022-10-24T03:17:33.698Z,51.17
2022-10-24T03:18:37.465Z,52.83
2022-10-24T03:19:41.547Z,42.08
2022-10-24T03:20:45.332Z,46.47
2022-10-24T03:21:48.110Z,42.03
2022-10-24T03:22:52.321Z,42.10
2022-10-24T03:23:55.154Z,46.05
2022-10-24T03:25:02.023Z,42.40
2022-10-24T03:26:04.741Z,46.33
2022-10-24T03:27:09.031Z,42.45
2022-10-24T03:28:11.842Z,43.25
2022-10-24T03:29:15.537Z,47.88
2022-10-24T03:30:19.351Z,50.50
2022-10-24T03:31:22.061Z,47.00
2022-10-24T03:33:29.561Z,45.17
2022-10-24T03:34:33.390Z,40.03
2022-10-24T03:35:37.650Z,38.33
2022-10-24T03:36:41.518Z,35.33
2022-10-24T03:37:44.380Z,41.05
2022-10-24T03:38:48.070Z,37.97
2022-10-24T03:39:50.826Z,39.65
2022-10-24T03:40:54.760Z,41.85
2022-10-24T03:41:57.439Z,42.55
2022-10-24T03:43:01.348Z,40.28
2022-10-24T03:44:04.111Z,34.97
2022-10-24T03:45:09.162Z,41.20
2022-10-24T03:46:11.869Z,42.55
2022-10-24T03:47:15.787Z,46.88
2022-10-24T03:48:19.219Z,45.38
2022-10-24T03:49:23.172Z,46.08
2022-10-24T03:50:26.191Z,49.55
2022-10-24T03:51:31.363Z,42.45
2022-10-24T03:52:35.232Z,46.42
2022-10-24T03:53:38.169Z,44.13
2022-10-24T03:54:41.948Z,46.35
2022-10-24T03:55:44.693Z,44.67
2022-10-24T03:56:49.620Z,44.17
2022-10-24T03:57:52.667Z,45.30
2022-10-24T03:58:56.449Z,45.28
2022-10-24T03:59:59.412Z,43.03
2022-10-24T04:01:03.734Z,41.22
2022-10-24T04:02:06.672Z,44.10
2022-10-24T04:03:11.018Z,45.28
2022-10-24T04:04:13.700Z,43.72
2022-10-24T04:05:17.559Z,36.22
2022-10-24T04:06:20.278Z,42.78
2022-10-24T04:07:25.501Z,32.08
2022-10-24T04:08:28.167Z,33.40
2022-10-24T04:09:32.020Z,34.75
2022-10-24T04:10:34.767Z,37.63
2022-10-24T04:11:38.557Z,36.25
2022-10-24T04:12:41.249Z,34.65
2022-10-24T04:13:45.008Z,36.67
2022-10-24T04:14:47.672Z,34.10
2022-10-24T04:15:51.441Z,40.72
2022-10-24T04:16:54.169Z,34.58
2022-10-24T04:17:57.910Z,29.15
2022-10-24T04:19:00.729Z,41.35
2022-10-24T04:20:04.713Z,35.78
2022-10-24T04:21:08.411Z,31.48
2022-10-24T04:22:11.209Z,33.17
2022-10-24T04:23:16.426Z,32.63
2022-10-24T04:24:20.229Z,39.30
2022-10-24T04:25:23.112Z,38.90
2022-10-24T04:26:27.159Z,30.40
2022-10-24T04:27:29.801Z,35.05
2022-10-24T04:28:33.740Z,39.33
2022-10-24T04:29:36.573Z,32.80
2022-10-24T04:30:40.434Z,42.72
2022-10-24T04:31:43.201Z,34.33
2022-10-24T04:32:47.223Z,36.03
2022-10-24T04:33:50.276Z,36.63
2022-10-24T04:34:54.096Z,31.42
2022-10-24T04:35:56.761Z,34.88
2022-10-24T04:37:00.560Z,35.22
2022-10-24T04:38:03.372Z,34.00
2022-10-24T04:39:08.763Z,31.77
2022-10-24T04:40:12.251Z,35.90
2022-10-24T04:41:16.089Z,38.85
2022-10-24T04:42:18.922Z,34.45
2022-10-24T04:43:23.394Z,33.38
2022-10-24T04:44:26.130Z,34.90
2022-10-24T04:45:29.891Z,34.15
2022-10-24T04:46:32.840Z,34.08
2022-10-24T04:47:36.820Z,36.45
2022-10-24T04:48:39.564Z,35.22
2022-10-24T04:49:43.415Z,38.13
2022-10-24T04:50:47.423Z,34.03
2022-10-24T04:51:51.246Z,30.13
2022-10-24T04:52:54.089Z,31.10
2022-10-24T04:53:57.831Z,31.80
2022-10-24T04:55:02.064Z,29.55
2022-10-24T04:56:06.363Z,34.30
2022-10-24T04:57:08.978Z,38.53
2022-10-24T04:58:12.710Z,30.17
2022-10-24T04:59:15.408Z,34.03
2022-10-24T05:00:19.399Z,32.15
2022-10-24T05:01:22.253Z,35.97
2022-10-24T05:02:26.161Z,36.80
2022-10-24T05:03:28.880Z,38.90
2022-10-24T05:04:32.767Z,33.05
2022-10-24T05:05:35.501Z,30.38
2022-10-24T05:06:44.215Z,27.98
2022-10-24T05:07:47.925Z,34.85
2022-10-24T05:08:51.708Z,37.53
2022-10-24T05:09:54.491Z,34.40
2022-10-24T05:10:59.587Z,29.60
2022-10-24T05:12:03.450Z,34.40
2022-10-24T05:13:06.149Z,32.97
2022-10-24T05:14:09.876Z,32.67
2022-10-24T05:15:14.448Z,30.48
2022-10-24T05:16:18.230Z,30.85
2022-10-24T05:17:20.986Z,33.15
2022-10-24T05:18:24.779Z,38.88
2022-10-24T05:19:27.522Z,31.85
2022-10-24T05:20:31.371Z,37.70
2022-10-24T05:21:34.311Z,34.70
2022-10-24T05:22:38.070Z,34.40
2022-10-24T05:23:42.011Z,41.13
2022-10-24T05:24:44.781Z,39.80
2022-10-24T05:25:48.580Z,37.30
2022-10-24T05:26:52.715Z,29.65
2022-10-24T05:27:56.489Z,30.33
2022-10-24T05:28:59.281Z,33.85
2022-10-24T05:30:03.191Z,34.15
2022-10-24T05:31:05.918Z,33.88
2022-10-24T05:32:09.732Z,36.17
2022-10-24T05:33:12.729Z,35.05
2022-10-24T05:34:16.492Z,41.10
2022-10-24T05:35:19.257Z,34.95
2022-10-24T05:36:23.197Z,39.33
2022-10-24T05:37:25.931Z,35.20
2022-10-24T05:38:29.832Z,36.55
2022-10-24T05:39:32.590Z,37.83
2022-10-24T05:40:36.392Z,43.85
2022-10-24T05:41:41.135Z,37.42
2022-10-24T05:42:48.976Z,36.75
2022-10-24T05:43:51.836Z,35.42
2022-10-24T05:44:55.580Z,37.47
2022-10-24T05:45:59.470Z,35.10
2022-10-24T05:47:02.081Z,44.40
2022-10-24T05:48:06.541Z,42.50
2022-10-24T05:49:09.240Z,44.17
2022-10-24T05:50:13.083Z,40.67
2022-10-24T05:51:15.821Z,45.85
2022-10-24T05:52:19.612Z,42.95
2022-10-24T05:53:22.249Z,42.75
2022-10-24T05:54:30.298Z,43.25
2022-10-24T05:55:41.671Z,42.83
2022-10-24T05:56:44.361Z,40.08
2022-10-24T05:57:49.618Z,56.97
2022-10-24T05:58:53.478Z,52.08
2022-10-24T05:59:56.212Z,44.90
2022-10-24T06:01:00.108Z,44.90
2022-10-24T06:02:03.315Z,52.60
2022-10-24T06:03:07.079Z,41.53
2022-10-24T06:04:12.891Z,44.42
2022-10-24T06:05:17.701Z,43.88
2022-10-24T06:06:20.427Z,42.50
2022-10-24T06:07:24.335Z,47.08
2022-10-24T06:08:27.221Z,42.60
2022-10-24T06:09:31.092Z,40.80
2022-10-24T06:10:34.118Z,42.53
2022-10-24T06:11:37.969Z,47.67
2022-10-24T06:12:42.196Z,47.50
2022-10-24T06:13:47.430Z,54.25
2022-10-24T06:14:50.279Z,57.58
2022-10-24T06:15:54.231Z,41.92
2022-10-24T06:16:56.892Z,43.13
2022-10-24T06:18:00.643Z,53.47
2022-10-24T06:19:03.555Z,47.28
2022-10-24T06:20:08.184Z,52.90
2022-10-24T06:21:13.632Z,54.38
2022-10-24T06:22:17.373Z,48.33
2022-10-24T06:23:20.303Z,51.50
2022-10-24T06:24:24.213Z,48.50
2022-10-24T06:25:28.151Z,54.63
2022-10-24T06:26:30.980Z,47.97
2022-10-24T06:27:34.800Z,52.50
2022-10-24T06:28:37.642Z,58.90
2022-10-24T06:29:43.022Z,52.45
2022-10-24T06:30:48.406Z,61.85
2022-10-24T06:31:52.231Z,54.90
2022-10-24T06:32:55.186Z,52.63
2022-10-24T06:33:58.962Z,52.92
2022-10-24T06:35:02.482Z,54.33
2022-10-24T06:36:09.558Z,55.65
2022-10-24T06:37:12.310Z,63.47
2022-10-24T06:38:16.081Z,52.22
2022-10-24T06:39:18.785Z,57.13
2022-10-24T06:40:22.672Z,66.07
2022-10-24T06:41:25.382Z,70.57
2022-10-24T06:42:29.050Z,71.10
2022-10-24T06:43:32.521Z,64.72
2022-10-24T06:44:36.832Z,63.00
2022-10-24T06:45:40.909Z,60.40
2022-10-24T06:46:45.461Z,51.30
2022-10-24T06:47:51.827Z,50.22
2022-10-24T06:48:57.912Z,46.03
2022-10-24T06:50:01.675Z,40.13
2022-10-24T06:51:04.776Z,35.38
2022-10-24T06:52:08.530Z,34.50
2022-10-24T06:53:11.347Z,30.90
2022-10-24T06:54:15.182Z,29.05
2022-10-24T06:55:17.950Z,31.88
2022-10-24T06:56:21.756Z,25.42
2022-10-24T06:57:24.580Z,29.42
2022-10-24T06:58:29.729Z,22.98
2022-10-24T06:59:32.503Z,25.00
2022-10-24T07:00:36.331Z,22.13
2022-10-24T07:01:41.642Z,21.38
2022-10-24T07:02:44.677Z,23.00
2022-10-24T07:03:49.176Z,21.00
2022-10-24T07:04:52.956Z,17.20
2022-10-24T07:05:56.060Z,17.58
2022-10-24T07:06:59.834Z,20.58
2022-10-24T07:08:02.651Z,13.90
2022-10-24T07:09:10.297Z,17.80
2022-10-24T07:10:16.778Z,15.18
2022-10-24T07:11:19.856Z,15.00
2022-10-24T07:12:23.982Z,16.50
2022-10-24T07:13:26.649Z,17.13
2022-10-24T07:14:30.561Z,13.48
2022-10-24T07:15:33.231Z,17.20
2022-10-24T07:16:37.220Z,13.68
2022-10-24T07:17:43.519Z,11.20
2022-10-24T07:18:46.499Z,13.00
2022-10-24T07:19:54.252Z,11.60
2022-10-24T07:21:03.024Z,19.08
2022-10-24T07:22:07.221Z,15.32
2022-10-24T07:23:09.927Z,13.00
2022-10-24T07:24:13.805Z,12.10
2022-10-24T07:25:16.998Z,14.40
2022-10-24T07:26:22.547Z,12.77
2022-10-24T07:27:26.359Z,12.25
2022-10-24T07:28:28.990Z,13.10
2022-10-24T07:29:32.751Z,11.73
2022-10-24T07:30:35.460Z,9.93
2022-10-24T07:31:39.159Z,13.07
2022-10-24T07:32:43.652Z,11.45
2022-10-24T07:33:47.549Z,10.82
2022-10-24T07:34:51.236Z,9.88
2022-10-24T07:35:54.047Z,9.15
2022-10-24T07:36:57.717Z,10.45
2022-10-24T07:38:00.342Z,12.23
2022-10-24T07:39:04.149Z,9.55
2022-10-24T07:40:08.991Z,10.93
2022-10-24T07:41:14.934Z,9.18
2022-10-24T07:42:19.019Z,7.20
2022-10-24T07:43:22.869Z,10.85
2022-10-24T07:44:26.646Z,8.48
2022-10-24T07:45:30.121Z,8.68
2022-10-24T07:46:33.820Z,12.82
2022-10-24T07:47:36.478Z,10.80
2022-10-24T07:48:42.699Z,8.18
2022-10-24T07:49:46.412Z,7.18
2022-10-24T07:50:49.639Z,8.88
2022-10-24T07:51:53.328Z,8.45
2022-10-24T07:52:57.449Z,9.65
2022-10-24T07:54:00.442Z,9.02
2022-10-24T07:55:05.491Z,7.82
2022-10-24T07:56:10.779Z,8.43
2022-10-24T07:57:13.468Z,7.47
2022-10-24T07:58:17.181Z,28.63
2022-10-24T07:59:40.786Z,13.20
2022-10-24T08:00:45.534Z,9.15
2022-10-24T08:01:48.560Z,12.15
2022-10-24T08:02:52.554Z,9.45
2022-10-24T08:03:58.282Z,9.05
2022-10-24T08:05:01.954Z,7.50
2022-10-24T08:06:06.202Z,6.93
2022-10-24T08:07:13.738Z,16.13
2022-10-24T08:08:35.090Z,14.70
2022-10-24T08:09:40.069Z,6.70
2022-10-24T08:10:42.702Z,8.10
2022-10-24T08:11:46.440Z,9.63
2022-10-24T08:12:49.127Z,7.53
2022-10-24T08:13:53.861Z,5.93
2022-10-24T08:14:58.461Z,17.15
2022-10-24T08:16:02.917Z,7.32
2022-10-24T08:17:06.059Z,7.57
2022-10-24T08:18:09.851Z,9.77
2022-10-24T08:19:15.393Z,5.18
2022-10-24T08:20:19.229Z,10.50
2022-10-24T08:21:24.212Z,5.70
2022-10-24T08:22:27.933Z,5.45
2022-10-24T08:23:30.642Z,6.97
2022-10-24T08:24:34.320Z,5.70
2022-10-24T08:25:40.356Z,12.63
2022-10-24T08:26:44.108Z,5.38
2022-10-24T08:27:47.826Z,7.78
2022-10-24T08:28:50.909Z,9.65
2022-10-24T08:29:54.761Z,6.65
2022-10-24T08:30:58.819Z,7.05
2022-10-24T08:32:02.520Z,7.13
2022-10-24T08:33:05.220Z,5.65
2022-10-24T08:34:08.918Z,6.82
2022-10-24T08:35:16.669Z,8.10
2022-10-24T08:36:22.556Z,5.60
2022-10-24T08:37:26.544Z,4.53
2022-10-24T08:38:30.410Z,8.38
2022-10-24T08:39:41.920Z,6.20
2022-10-24T08:40:49.249Z,7.70
2022-10-24T08:41:59.281Z,6.53
2022-10-24T08:43:04.601Z,5.07
2022-10-24T08:44:16.286Z,6.07
2022-10-24T08:45:25.121Z,5.40
2022-10-24T08:46:38.037Z,9.65
2022-10-24T08:47:44.949Z,10.05
2022-10-24T08:48:54.342Z,7.57
2022-10-24T08:50:06.069Z,9.98
2022-10-24T08:51:19.521Z,9.57
2022-10-24T08:52:29.691Z,9.85
2022-10-24T08:53:34.477Z,7.82
2022-10-24T08:54:41.782Z,10.88
2022-10-24T08:55:50.288Z,14.50
2022-10-24T08:56:58.131Z,10.02
2022-10-24T08:58:02.872Z,5.82
2022-10-24T08:59:07.282Z,5.38
2022-10-24T09:00:18.640Z,4.30
2022-10-24T09:01:31.256Z,5.10
2022-10-24T09:02:39.926Z,4.90
2022-10-24T09:04:01.330Z,10.32
2022-10-24T09:05:20.001Z,14.73
2022-10-24T09:06:27.204Z,16.63
2022-10-24T09:07:31.260Z,9.93
2022-10-24T09:08:39.101Z,16.13
2022-10-24T09:09:46.982Z,8.32
2022-10-24T09:10:55.983Z,5.20
2022-10-24T09:12:01.994Z,7.00
2022-10-24T09:13:12.304Z,4.22
2022-10-24T09:14:18.041Z,7.80
2022-10-24T09:15:26.720Z,5.32
2022-10-24T09:16:31.039Z,4.32
2022-10-24T09:17:37.400Z,4.45
2022-10-24T09:18:42.673Z,5.00
2022-10-24T09:19:50.767Z,4.97
2022-10-24T09:20:55.781Z,4.85
2022-10-24T09:22:01.854Z,5.40
2022-10-24T09:23:05.932Z,6.13
2022-10-24T09:24:17.633Z,5.63
2022-10-24T09:25:24.253Z,5.45
2022-10-24T09:26:29.454Z,7.40
2022-10-24T09:27:35.161Z,4.78
2022-10-24T09:28:40.239Z,5.50
2022-10-24T09:29:43.117Z,5.85
2022-10-24T09:30:47.356Z,5.78
2022-10-24T09:31:50.113Z,6.60
2022-10-24T09:32:54.401Z,8.60
2022-10-24T09:34:00.638Z,6.13
2022-10-24T09:35:07.763Z,7.80
2022-10-24T09:36:12.770Z,5.15
2022-10-24T09:37:43.989Z,3.95
2022-10-24T09:38:50.208Z,5.25
2022-10-24T09:40:07.573Z,10.40
2022-10-24T09:41:18.541Z,6.87
2022-10-24T09:42:23.999Z,4.57
2022-10-24T09:43:33.509Z,9.48
2022-10-24T09:44:41.230Z,4.00
2022-10-24T09:45:47.280Z,4.85
2022-10-24T09:46:51.149Z,14.15
2022-10-24T09:47:57.004Z,27.20
2022-10-24T09:49:02.780Z,10.10
2022-10-24T09:50:06.779Z,6.72
2022-10-24T09:51:10.551Z,5.22
2022-10-24T09:52:20.707Z,7.20
2022-10-24T09:53:30.641Z,5.47
2022-10-24T09:54:35.494Z,4.78
2022-10-24T09:55:45.762Z,8.02
2022-10-24T09:56:54.292Z,6.18
2022-10-24T09:58:04.223Z,8.93
2022-10-24T09:59:28.061Z,9.95
2022-10-24T10:00:33.749Z,7.88
2022-10-24T10:01:38.387Z,6.13
2022-10-24T10:02:58.469Z,6.43
2022-10-24T10:04:07.570Z,4.10
2022-10-24T10:05:22.829Z,3.60
2022-10-24T10:06:25.548Z,5.40
2022-10-24T10:07:30.390Z,4.68
2022-10-24T10:08:37.172Z,5.28
2022-10-24T10:09:51.605Z,5.07
2022-10-24T10:11:04.960Z,6.57
2022-10-24T10:12:13.911Z,7.45
2022-10-24T10:13:24.500Z,8.45
2022-10-24T10:14:30.381Z,5.30
2022-10-24T10:15:36.389Z,5.28
2022-10-24T10:16:40.822Z,9.25
2022-10-24T10:17:51.080Z,11.48
2022-10-24T10:19:03.496Z,6.20
2022-10-24T10:20:06.813Z,11.45
2022-10-24T10:21:16.012Z,6.57
2022-10-24T10:22:25.890Z,23.92
2022-10-24T10:23:32.651Z,6.80
2022-10-24T10:24:42.421Z,6.35
2022-10-24T10:25:45.125Z,4.70
2022-10-24T10:26:48.858Z,5.80
2022-10-24T10:27:52.797Z,7.72
2022-10-24T10:29:02.448Z,6.65
2022-10-24T10:30:17.182Z,5.07
2022-10-24T10:31:22.836Z,4.40
2022-10-24T10:32:31.153Z,7.45
2022-10-24T10:34:48.299Z,8.20
2022-10-24T10:35:54.251Z,6.82
2022-10-24T10:37:18.962Z,5.07
2022-10-24T10:38:45.463Z,6.93
2022-10-24T10:40:15.982Z,7.78
2022-10-24T10:41:34.312Z,6.45
2022-10-24T10:42:43.094Z,54.13
2022-10-24T10:43:54.935Z,6.97
2022-10-24T10:45:06.437Z,8.13
2022-10-24T10:46:17.928Z,7.88
2022-10-24T10:47:35.104Z,5.95
2022-10-24T10:48:49.871Z,12.13
2022-10-24T10:49:57.844Z,15.10
2022-10-24T10:51:08.159Z,14.88
2022-10-24T10:52:14.848Z,55.33
2022-10-24T10:53:34.951Z,6.53
2022-10-24T10:54:59.791Z,12.73
2022-10-24T10:56:10.379Z,5.57
2022-10-24T10:57:14.340Z,10.00
2022-10-24T10:58:27.327Z,5.20
2022-10-24T10:59:41.209Z,5.30
2022-10-24T11:00:48.718Z,12.63
2022-10-24T11:01:58.863Z,7.57
2022-10-24T11:03:17.172Z,4.45
2022-10-24T11:04:24.103Z,5.53
2022-10-24T11:05:40.536Z,5.28
2022-10-24T11:06:50.542Z,9.05
2022-10-24T11:08:01.595Z,5.70
2022-10-24T11:09:19.667Z,5.83
2022-10-24T11:10:27.801Z,5.20
2022-10-24T11:11:32.290Z,5.07
2022-10-24T11:12:38.461Z,8.83
2022-10-24T11:13:43.738Z,10.37
2022-10-24T11:14:50.151Z,7.03
2022-10-24T11:15:56.362Z,4.57
2022-10-24T11:17:05.169Z,5.07
2022-10-24T11:18:13.421Z,5.33
2022-10-24T11:19:23.867Z,4.73
2022-10-24T11:20:31.253Z,6.07
2022-10-24T11:21:36.278Z,4.40
2022-10-24T11:22:44.204Z,4.73
2022-10-24T11:23:50.773Z,6.80
2022-10-24T11:24:59.089Z,5.40
2022-10-24T11:26:07.685Z,5.07
2022-10-24T11:27:15.588Z,5.43
2022-10-24T11:28:24.284Z,6.27
2022-10-24T11:29:33.037Z,3.40
2022-10-24T11:30:47.710Z,5.70
2022-10-24T11:31:54.915Z,5.70
2022-10-24T11:33:00.120Z,5.57
2022-10-24T11:34:05.991Z,3.47
2022-10-24T11:35:20.114Z,5.43
2022-10-24T11:36:27.610Z,10.60
2022-10-24T11:37:33.919Z,5.67
2022-10-24T11:38:39.631Z,3.40
2022-10-24T11:39:46.497Z,6.20
2022-10-24T11:40:54.800Z,6.00
2022-10-24T11:42:06.572Z,4.23
2022-10-24T11:43:14.650Z,7.63
2022-10-24T11:44:28.760Z,4.67
2022-10-24T11:45:40.558Z,11.03
2022-10-24T11:46:45.292Z,6.40
2022-10-24T11:47:56.031Z,8.97
2022-10-24T11:49:03.859Z,5.67
2022-10-24T11:50:13.062Z,6.73
2022-10-24T11:51:21.565Z,5.83
2022-10-24T11:52:27.369Z,6.67
2022-10-24T11:53:54.048Z,7.93
2022-10-24T11:55:00.346Z,7.63
2022-10-24T11:56:07.120Z,5.93
2022-10-24T11:57:15.003Z,7.47
2022-10-24T11:58:21.975Z,6.13
2022-10-24T11:59:25.772Z,4.30
2022-10-24T12:00:31.542Z,6.70
2022-10-24T12:02:20.170Z,6.00
2022-10-24T12:03:53.435Z,4.57
2022-10-24T12:05:25.816Z,6.17
2022-10-24T12:06:43.270Z,4.23
2022-10-24T12:08:23.328Z,7.00
2022-10-24T12:09:56.751Z,7.40
2022-10-24T12:11:07.783Z,7.47
2022-10-24T12:12:23.543Z,7.33
2022-10-24T12:13:49.647Z,6.80
2022-10-24T12:15:02.509Z,6.93
2022-10-24T12:16:14.141Z,5.10
2022-10-24T12:17:37.476Z,5.97
2022-10-24T12:18:43.252Z,6.00
2022-10-24T12:19:46.490Z,11.47
2022-10-24T12:20:52.797Z,6.90
2022-10-24T12:21:58.201Z,4.87
2022-10-24T12:23:01.617Z,5.10
2022-10-24T12:24:06.328Z,4.10
2022-10-24T12:25:19.789Z,9.03
2022-10-24T12:26:28.157Z,6.33
2022-10-24T12:27:37.450Z,7.82
2022-10-24T12:28:41.643Z,4.20
2022-10-24T12:29:44.491Z,7.60
2022-10-24T12:31:10.500Z,7.70
2022-10-24T12:32:38.252Z,5.07
2022-10-24T12:33:42.482Z,7.57
2022-10-24T12:34:49.147Z,4.43
2022-10-24T12:35:56.680Z,7.20
2022-10-24T12:37:05.460Z,8.97
2022-10-24T12:38:17.991Z,6.53
2022-10-24T12:39:30.893Z,8.73
2022-10-24T12:40:56.667Z,7.67
2022-10-24T12:42:00.591Z,9.13
2022-10-24T12:43:16.246Z,6.47
2022-10-24T12:44:37.690Z,3.83
2022-10-24T12:45:41.618Z,8.13
2022-10-24T12:46:54.870Z,8.50
2022-10-24T12:48:36.112Z,6.63
2022-10-24T12:49:38.823Z,6.63
2022-10-24T12:51:30.064Z,8.30
2022-10-24T12:52:51.791Z,6.07
2022-10-24T12:54:04.615Z,5.87
2022-10-24T12:55:30.958Z,6.17
2022-10-24T12:56:35.641Z,4.23
2022-10-24T12:57:38.818Z,4.20
2022-10-24T12:58:45.020Z,7.03
2022-10-24T12:59:49.348Z,9.57
2022-10-24T13:00:56.680Z,8.57
2022-10-24T13:02:41.031Z,5.80
2022-10-24T13:03:59.711Z,3.43
2022-10-24T13:05:13.259Z,5.53
2022-10-24T13:06:22.838Z,5.43
2022-10-24T13:08:02.060Z,3.93
2022-10-24T13:09:17.255Z,5.20
2022-10-24T13:10:33.216Z,6.23
2022-10-24T13:11:54.256Z,6.30
2022-10-24T13:13:14.053Z,5.67
2022-10-24T13:14:32.281Z,4.00
2022-10-24T13:15:43.259Z,6.23
2022-10-24T13:16:59.092Z,6.50
2022-10-24T13:18:21.628Z,5.93
2022-10-24T13:19:25.474Z,5.20
2022-10-24T13:20:30.640Z,15.03
2022-10-24T13:22:46.586Z,8.17
2022-10-24T13:23:50.022Z,3.70
2022-10-24T13:24:53.911Z,5.17
2022-10-24T13:25:58.051Z,7.50
2022-10-24T13:27:32.182Z,10.30
2022-10-24T13:28:40.861Z,3.53
2022-10-24T13:30:24.476Z,3.40
2022-10-24T13:31:47.940Z,5.33
2022-10-24T13:32:51.865Z,5.77
2022-10-24T13:34:20.533Z,5.20
2022-10-24T13:35:26.420Z,9.57
2022-10-24T13:36:32.097Z,5.40
2022-10-24T13:37:39.561Z,5.57
2022-10-24T13:38:46.763Z,8.43
2022-10-24T13:39:52.869Z,6.07
2022-10-24T13:40:56.029Z,4.80
2022-10-24T13:42:02.087Z,5.90
2022-10-24T13:43:07.997Z,7.35
2022-10-24T13:44:23.175Z,5.20
2022-10-24T13:45:31.071Z,7.67
2022-10-24T13:47:52.282Z,4.63
2022-10-24T13:48:55.590Z,6.00
2022-10-24T13:50:00.860Z,5.63
2022-10-24T13:51:07.091Z,9.73
2022-10-24T13:52:17.440Z,5.17
2022-10-24T13:53:30.326Z,5.45
2022-10-24T13:54:36.562Z,5.43
2022-10-24T13:55:44.449Z,10.45
2022-10-24T13:56:47.755Z,7.05
2022-10-24T13:57:54.054Z,6.47
2022-10-24T13:58:57.802Z,5.13
2022-10-24T14:00:02.070Z,6.93
2022-10-24T14:01:19.477Z,6.28
2022-10-24T14:02:26.084Z,8.25
2022-10-24T14:03:33.318Z,5.78
2022-10-24T14:04:36.128Z,7.38
2022-10-24T14:05:42.230Z,5.25
2022-10-24T14:06:44.943Z,8.63
2022-10-24T14:07:49.321Z,4.80
2022-10-24T14:09:05.544Z,4.35
2022-10-24T14:10:14.144Z,5.55
2022-10-24T14:11:22.696Z,6.20
2022-10-24T14:12:29.380Z,7.75
2022-10-24T14:13:35.694Z,7.25
2022-10-24T14:14:41.361Z,7.22
2022-10-24T14:15:48.940Z,6.28
2022-10-24T14:17:05.862Z,5.85
2022-10-24T14:18:14.920Z,5.40
2022-10-24T14:19:29.597Z,6.07
2022-10-24T14:20:36.642Z,7.25
2022-10-24T14:21:41.630Z,10.98
2022-10-24T14:22:45.629Z,7.75
2022-10-24T14:23:55.999Z,10.60
2022-10-24T14:24:59.900Z,13.65
2022-10-24T14:26:07.149Z,6.20
2022-10-24T14:27:12.259Z,8.68
2022-10-24T14:28:17.401Z,6.65
2022-10-24T14:29:22.954Z,16.63
2022-10-24T14:30:34.281Z,5.65
2022-10-24T14:31:37.771Z,6.75
2022-10-24T14:32:43.190Z,9.55
2022-10-24T14:33:50.586Z,11.15
2022-10-24T14:34:54.700Z,7.57
2022-10-24T14:36:00.087Z,7.35
2022-10-24T14:37:06.953Z,6.47
2022-10-24T14:38:15.091Z,6.10
2022-10-24T14:39:23.884Z,12.65